sensor_id;sensor_type;location;lat;lon;timestamp;P1;durP1;ratioP1;P2;durP2;ratioP2
26620;SDS011;14253;44.840;10.444;2023-08-01T00:02:11;7.90;;;4.57;;
26620;SDS011;14253;44.840;10.444;2023-08-01T00:04:37;6.10;;;3.97;;
26620;SDS011;14253;44.840;10.444;2023-08-01T00:07:03;5.43;;;4.63;;
26620;SDS011;14253;44.840;10.444;2023-08-01T00:09:29;7.57;;;3.95;;
26620;SDS011;14253;44.840;10.444;2023-08-01T00:11:55;7.32;;;3.80;;
26620;SDS011;14253;44.840;10.444;2023-08-01T00:14:21;6.50;;;4.28;;
26620;SDS011;14253;44.840;10.444;2023-08-01T00:16:52;8.57;;;5.32;;
26620;SDS011;14253;44.840;10.444;2023-08-01T00:19:18;8.43;;;5.13;;
26620;SDS011;14253;44.840;10.444;2023-08-01T00:21:44;6.47;;;4.45;;
26620;SDS011;14253;44.840;10.444;2023-08-01T00:24:10;4.88;;;3.92;;
26620;SDS011;14253;44.840;10.444;2023-08-01T00:26:36;7.88;;;4.82;;
26620;SDS011;14253;44.840;10.444;2023-08-01T00:29:02;8.82;;;5.80;;
26620;SDS011;14253;44.840;10.444;2023-08-01T00:31:28;6.82;;;5.50;;
26620;SDS011;14253;44.840;10.444;2023-08-01T00:33:55;7.88;;;5.80;;
26620;SDS011;14253;44.840;10.444;2023-08-01T00:36:21;8.10;;;5.32;;
26620;SDS011;14253;44.840;10.444;2023-08-01T00:38:47;5.70;;;4.32;;
26620;SDS011;14253;44.840;10.444;2023-08-01T00:41:14;6.03;;;4.47;;
26620;SDS011;14253;44.840;10.444;2023-08-01T00:43:40;9.23;;;4.65;;
26620;SDS011;14253;44.840;10.444;2023-08-01T00:46:06;5.20;;;4.07;;
26620;SDS011;14253;44.840;10.444;2023-08-01T00:48:33;8.52;;;4.90;;
26620;SDS011;14253;44.840;10.444;2023-08-01T00:50:59;7.22;;;4.75;;
26620;SDS011;14253;44.840;10.444;2023-08-01T00:53:30;5.13;;;3.83;;
26620;SDS011;14253;44.840;10.444;2023-08-01T00:55:57;7.15;;;4.65;;
26620;SDS011;14253;44.840;10.444;2023-08-01T00:58:24;8.45;;;4.63;;
26620;SDS011;14253;44.840;10.444;2023-08-01T01:00:50;8.30;;;4.55;;
26620;SDS011;14253;44.840;10.444;2023-08-01T01:03:16;9.55;;;5.30;;
26620;SDS011;14253;44.840;10.444;2023-08-01T01:05:47;7.95;;;4.72;;
26620;SDS011;14253;44.840;10.444;2023-08-01T01:08:19;5.88;;;4.10;;
26620;SDS011;14253;44.840;10.444;2023-08-01T01:10:46;8.65;;;4.55;;
26620;SDS011;14253;44.840;10.444;2023-08-01T01:13:12;6.75;;;4.03;;
26620;SDS011;14253;44.840;10.444;2023-08-01T01:15:38;6.32;;;4.50;;
26620;SDS011;14253;44.840;10.444;2023-08-01T01:18:04;5.00;;;4.50;;
26620;SDS011;14253;44.840;10.444;2023-08-01T01:20:33;5.63;;;4.28;;
26620;SDS011;14253;44.840;10.444;2023-08-01T01:23:00;6.82;;;5.00;;
26620;SDS011;14253;44.840;10.444;2023-08-01T01:25:29;9.25;;;4.78;;
26620;SDS011;14253;44.840;10.444;2023-08-01T01:27:56;6.18;;;4.10;;
26620;SDS011;14253;44.840;10.444;2023-08-01T01:30:24;8.80;;;5.20;;
26620;SDS011;14253;44.840;10.444;2023-08-01T01:32:52;7.22;;;5.03;;
26620;SDS011;14253;44.840;10.444;2023-08-01T01:35:19;12.65;;;4.78;;
26620;SDS011;14253;44.840;10.444;2023-08-01T01:37:45;6.63;;;4.00;;
26620;SDS011;14253;44.840;10.444;2023-08-01T01:40:11;7.43;;;5.00;;
26620;SDS011;14253;44.840;10.444;2023-08-01T01:42:37;5.35;;;3.83;;
26620;SDS011;14253;44.840;10.444;2023-08-01T01:45:03;6.68;;;4.05;;
26620;SDS011;14253;44.840;10.444;2023-08-01T01:47:29;6.55;;;4.18;;
26620;SDS011;14253;44.840;10.444;2023-08-01T01:49:55;9.82;;;4.10;;
26620;SDS011;14253;44.840;10.444;2023-08-01T01:52:21;6.93;;;4.88;;
26620;SDS011;14253;44.840;10.444;2023-08-01T01:54:47;6.28;;;4.82;;
26620;SDS011;14253;44.840;10.444;2023-08-01T01:57:13;5.32;;;4.10;;
26620;SDS011;14253;44.840;10.444;2023-08-01T01:59:39;7.53;;;4.20;;
26620;SDS011;14253;44.840;10.444;2023-08-01T02:02:05;5.10;;;4.55;;
26620;SDS011;14253;44.840;10.444;2023-08-01T02:04:31;7.20;;;4.57;;
26620;SDS011;14253;44.840;10.444;2023-08-01T02:06:57;7.78;;;4.95;;
26620;SDS011;14253;44.840;10.444;2023-08-01T02:09:23;5.95;;;4.07;;
26620;SDS011;14253;44.840;10.444;2023-08-01T02:11:50;8.07;;;4.57;;
26620;SDS011;14253;44.840;10.444;2023-08-01T02:14:15;6.30;;;4.30;;
26620;SDS011;14253;44.840;10.444;2023-08-01T02:16:41;10.40;;;4.93;;
26620;SDS011;14253;44.840;10.444;2023-08-01T02:19:08;8.05;;;4.78;;
26620;SDS011;14253;44.840;10.444;2023-08-01T02:21:35;7.95;;;4.72;;
26620;SDS011;14253;44.840;10.444;2023-08-01T02:24:01;7.03;;;4.07;;
26620;SDS011;14253;44.840;10.444;2023-08-01T02:26:28;8.93;;;4.22;;
26620;SDS011;14253;44.840;10.444;2023-08-01T02:28:54;6.63;;;4.35;;
26620;SDS011;14253;44.840;10.444;2023-08-01T02:31:20;8.65;;;4.20;;
26620;SDS011;14253;44.840;10.444;2023-08-01T02:33:46;6.57;;;4.13;;
26620;SDS011;14253;44.840;10.444;2023-08-01T02:36:13;9.65;;;3.60;;
26620;SDS011;14253;44.840;10.444;2023-08-01T02:38:39;6.75;;;4.00;;
26620;SDS011;14253;44.840;10.444;2023-08-01T02:41:05;10.25;;;4.13;;
26620;SDS011;14253;44.840;10.444;2023-08-01T02:43:31;5.72;;;4.10;;
26620;SDS011;14253;44.840;10.444;2023-08-01T02:45:57;5.35;;;3.50;;
26620;SDS011;14253;44.840;10.444;2023-08-01T02:48:25;10.00;;;4.40;;
26620;SDS011;14253;44.840;10.444;2023-08-01T02:50:51;6.32;;;3.47;;
26620;SDS011;14253;44.840;10.444;2023-08-01T02:53:17;6.03;;;4.32;;
26620;SDS011;14253;44.840;10.444;2023-08-01T02:55:43;6.40;;;4.03;;
26620;SDS011;14253;44.840;10.444;2023-08-01T02:58:11;6.25;;;3.83;;
26620;SDS011;14253;44.840;10.444;2023-08-01T03:00:38;6.53;;;4.43;;
26620;SDS011;14253;44.840;10.444;2023-08-01T03:03:06;6.68;;;4.20;;
26620;SDS011;14253;44.840;10.444;2023-08-01T03:05:32;9.25;;;4.63;;
26620;SDS011;14253;44.840;10.444;2023-08-01T03:08:00;6.30;;;4.70;;
26620;SDS011;14253;44.840;10.444;2023-08-01T03:10:26;7.70;;;5.28;;
26620;SDS011;14253;44.840;10.444;2023-08-01T03:12:52;7.25;;;5.07;;
26620;SDS011;14253;44.840;10.444;2023-08-01T03:15:19;5.40;;;4.35;;
26620;SDS011;14253;44.840;10.444;2023-08-01T03:17:44;8.95;;;5.22;;
26620;SDS011;14253;44.840;10.444;2023-08-01T03:20:10;6.97;;;5.00;;
26620;SDS011;14253;44.840;10.444;2023-08-01T03:22:40;6.78;;;4.65;;
26620;SDS011;14253;44.840;10.444;2023-08-01T03:25:07;6.22;;;4.55;;
26620;SDS011;14253;44.840;10.444;2023-08-01T03:27:33;5.57;;;4.25;;
26620;SDS011;14253;44.840;10.444;2023-08-01T03:30:00;8.02;;;4.53;;
26620;SDS011;14253;44.840;10.444;2023-08-01T03:32:26;7.10;;;4.20;;
26620;SDS011;14253;44.840;10.444;2023-08-01T03:34:52;7.18;;;3.85;;
26620;SDS011;14253;44.840;10.444;2023-08-01T03:37:18;8.18;;;3.47;;
26620;SDS011;14253;44.840;10.444;2023-08-01T03:39:44;6.30;;;4.25;;
26620;SDS011;14253;44.840;10.444;2023-08-01T03:42:10;7.20;;;3.85;;
26620;SDS011;14253;44.840;10.444;2023-08-01T03:44:36;8.73;;;4.38;;
26620;SDS011;14253;44.840;10.444;2023-08-01T03:47:02;11.93;;;4.18;;
26620;SDS011;14253;44.840;10.444;2023-08-01T03:49:28;4.43;;;3.58;;
26620;SDS011;14253;44.840;10.444;2023-08-01T03:51:54;6.80;;;3.90;;
26620;SDS011;14253;44.840;10.444;2023-08-01T03:54:20;12.60;;;4.18;;
26620;SDS011;14253;44.840;10.444;2023-08-01T03:56:46;7.38;;;4.20;;
26620;SDS011;14253;44.840;10.444;2023-08-01T03:59:15;9.45;;;4.20;;
26620;SDS011;14253;44.840;10.444;2023-08-01T04:01:42;5.18;;;4.30;;
26620;SDS011;14253;44.840;10.444;2023-08-01T04:04:08;7.07;;;3.80;;
26620;SDS011;14253;44.840;10.444;2023-08-01T04:06:35;5.95;;;3.95;;
26620;SDS011;14253;44.840;10.444;2023-08-01T04:09:01;9.82;;;4.38;;
26620;SDS011;14253;44.840;10.444;2023-08-01T04:11:27;7.22;;;4.20;;
26620;SDS011;14253;44.840;10.444;2023-08-01T04:13:55;6.60;;;4.65;;
26620;SDS011;14253;44.840;10.444;2023-08-01T04:16:21;6.40;;;4.45;;
26620;SDS011;14253;44.840;10.444;2023-08-01T04:18:47;6.15;;;3.72;;
26620;SDS011;14253;44.840;10.444;2023-08-01T04:21:13;15.63;;;5.30;;
26620;SDS011;14253;44.840;10.444;2023-08-01T04:23:40;18.73;;;6.28;;
26620;SDS011;14253;44.840;10.444;2023-08-01T04:26:06;10.32;;;4.47;;
26620;SDS011;14253;44.840;10.444;2023-08-01T04:28:33;9.85;;;4.68;;
26620;SDS011;14253;44.840;10.444;2023-08-01T04:30:59;10.02;;;5.13;;
26620;SDS011;14253;44.840;10.444;2023-08-01T04:33:25;8.80;;;4.82;;
26620;SDS011;14253;44.840;10.444;2023-08-01T04:35:51;19.67;;;6.50;;
26620;SDS011;14253;44.840;10.444;2023-08-01T04:38:17;12.43;;;5.00;;
26620;SDS011;14253;44.840;10.444;2023-08-01T04:40:43;11.63;;;4.53;;
26620;SDS011;14253;44.840;10.444;2023-08-01T04:43:10;10.52;;;3.85;;
26620;SDS011;14253;44.840;10.444;2023-08-01T04:45:37;9.23;;;4.53;;
26620;SDS011;14253;44.840;10.444;2023-08-01T04:48:03;7.65;;;3.83;;
26620;SDS011;14253;44.840;10.444;2023-08-01T04:50:29;9.90;;;5.38;;
26620;SDS011;14253;44.840;10.444;2023-08-01T04:52:55;11.23;;;6.07;;
26620;SDS011;14253;44.840;10.444;2023-08-01T04:55:21;15.68;;;8.70;;
26620;SDS011;14253;44.840;10.444;2023-08-01T04:57:47;12.93;;;8.88;;
26620;SDS011;14253;44.840;10.444;2023-08-01T05:00:13;13.38;;;7.68;;
26620;SDS011;14253;44.840;10.444;2023-08-01T05:02:39;11.15;;;5.53;;
26620;SDS011;14253;44.840;10.444;2023-08-01T05:05:05;8.05;;;5.47;;
26620;SDS011;14253;44.840;10.444;2023-08-01T05:07:31;9.95;;;4.82;;
26620;SDS011;14253;44.840;10.444;2023-08-01T05:09:57;6.78;;;4.70;;
26620;SDS011;14253;44.840;10.444;2023-08-01T05:12:23;8.95;;;4.28;;
26620;SDS011;14253;44.840;10.444;2023-08-01T05:14:49;6.60;;;4.65;;
26620;SDS011;14253;44.840;10.444;2023-08-01T05:17:15;14.45;;;4.57;;
26620;SDS011;14253;44.840;10.444;2023-08-01T05:19:41;9.25;;;5.00;;
26620;SDS011;14253;44.840;10.444;2023-08-01T05:22:07;8.85;;;4.35;;
26620;SDS011;14253;44.840;10.444;2023-08-01T05:24:33;7.70;;;3.90;;
26620;SDS011;14253;44.840;10.444;2023-08-01T05:26:59;7.30;;;4.60;;
26620;SDS011;14253;44.840;10.444;2023-08-01T05:29:25;9.20;;;5.03;;
26620;SDS011;14253;44.840;10.444;2023-08-01T05:31:51;11.20;;;5.43;;
26620;SDS011;14253;44.840;10.444;2023-08-01T05:34:17;11.07;;;5.43;;
26620;SDS011;14253;44.840;10.444;2023-08-01T05:36:43;8.82;;;4.93;;
26620;SDS011;14253;44.840;10.444;2023-08-01T05:39:09;10.73;;;4.97;;
26620;SDS011;14253;44.840;10.444;2023-08-01T05:41:35;8.02;;;4.65;;
26620;SDS011;14253;44.840;10.444;2023-08-01T05:44:03;9.48;;;5.20;;
26620;SDS011;14253;44.840;10.444;2023-08-01T05:46:29;19.15;;;5.15;;
26620;SDS011;14253;44.840;10.444;2023-08-01T05:48:55;7.57;;;4.07;;
26620;SDS011;14253;44.840;10.444;2023-08-01T05:51:21;9.02;;;4.10;;
26620;SDS011;14253;44.840;10.444;2023-08-01T05:53:47;10.05;;;4.07;;
26620;SDS011;14253;44.840;10.444;2023-08-01T05:56:13;8.55;;;4.65;;
26620;SDS011;14253;44.840;10.444;2023-08-01T05:58:39;6.63;;;4.63;;
26620;SDS011;14253;44.840;10.444;2023-08-01T06:01:05;13.35;;;5.03;;
26620;SDS011;14253;44.840;10.444;2023-08-01T06:03:31;9.57;;;5.05;;
26620;SDS011;14253;44.840;10.444;2023-08-01T06:05:57;6.68;;;4.50;;
26620;SDS011;14253;44.840;10.444;2023-08-01T06:08:23;9.27;;;4.95;;
26620;SDS011;14253;44.840;10.444;2023-08-01T06:10:49;20.00;;;5.50;;
26620;SDS011;14253;44.840;10.444;2023-08-01T06:13:15;15.98;;;5.57;;
26620;SDS011;14253;44.840;10.444;2023-08-01T06:15:41;7.50;;;4.15;;
26620;SDS011;14253;44.840;10.444;2023-08-01T06:18:07;9.50;;;5.13;;
26620;SDS011;14253;44.840;10.444;2023-08-01T06:20:33;19.48;;;6.50;;
26620;SDS011;14253;44.840;10.444;2023-08-01T06:22:59;10.82;;;4.82;;
26620;SDS011;14253;44.840;10.444;2023-08-01T06:25:25;15.60;;;6.78;;
26620;SDS011;14253;44.840;10.444;2023-08-01T06:27:51;13.57;;;6.15;;
26620;SDS011;14253;44.840;10.444;2023-08-01T06:30:17;10.77;;;5.22;;
26620;SDS011;14253;44.840;10.444;2023-08-01T06:32:43;10.77;;;5.18;;
26620;SDS011;14253;44.840;10.444;2023-08-01T06:35:09;14.23;;;5.45;;
26620;SDS011;14253;44.840;10.444;2023-08-01T06:37:34;16.98;;;5.22;;
26620;SDS011;14253;44.840;10.444;2023-08-01T06:40:01;13.77;;;5.05;;
26620;SDS011;14253;44.840;10.444;2023-08-01T06:42:27;19.08;;;5.00;;
26620;SDS011;14253;44.840;10.444;2023-08-01T06:44:53;11.77;;;5.28;;
26620;SDS011;14253;44.840;10.444;2023-08-01T06:47:19;11.20;;;5.80;;
26620;SDS011;14253;44.840;10.444;2023-08-01T06:49:45;12.00;;;5.10;;
26620;SDS011;14253;44.840;10.444;2023-08-01T06:52:11;14.52;;;5.20;;
26620;SDS011;14253;44.840;10.444;2023-08-01T06:54:37;26.08;;;6.32;;
26620;SDS011;14253;44.840;10.444;2023-08-01T06:57:03;15.75;;;5.78;;
26620;SDS011;14253;44.840;10.444;2023-08-01T06:59:29;24.27;;;5.80;;
26620;SDS011;14253;44.840;10.444;2023-08-01T07:01:55;9.88;;;5.85;;
26620;SDS011;14253;44.840;10.444;2023-08-01T07:04:21;11.48;;;4.90;;
26620;SDS011;14253;44.840;10.444;2023-08-01T07:06:49;7.50;;;4.50;;
26620;SDS011;14253;44.840;10.444;2023-08-01T07:09:15;13.45;;;4.20;;
26620;SDS011;14253;44.840;10.444;2023-08-01T07:11:41;7.82;;;3.78;;
26620;SDS011;14253;44.840;10.444;2023-08-01T07:14:07;12.07;;;3.50;;
26620;SDS011;14253;44.840;10.444;2023-08-01T07:16:32;8.75;;;3.55;;
26620;SDS011;14253;44.840;10.444;2023-08-01T07:18:59;9.60;;;3.63;;
26620;SDS011;14253;44.840;10.444;2023-08-01T07:21:31;11.20;;;2.65;;
26620;SDS011;14253;44.840;10.444;2023-08-01T07:24:00;6.60;;;3.65;;
26620;SDS011;14253;44.840;10.444;2023-08-01T07:26:27;10.38;;;3.47;;
26620;SDS011;14253;44.840;10.444;2023-08-01T07:28:54;7.10;;;2.97;;
26620;SDS011;14253;44.840;10.444;2023-08-01T07:31:20;7.95;;;3.40;;
26620;SDS011;14253;44.840;10.444;2023-08-01T07:33:46;6.55;;;3.40;;
26620;SDS011;14253;44.840;10.444;2023-08-01T07:36:12;11.13;;;3.28;;
26620;SDS011;14253;44.840;10.444;2023-08-01T07:38:57;9.85;;;3.50;;
26620;SDS011;14253;44.840;10.444;2023-08-01T07:41:23;6.47;;;3.28;;
26620;SDS011;14253;44.840;10.444;2023-08-01T07:43:49;9.63;;;3.17;;
26620;SDS011;14253;44.840;10.444;2023-08-01T07:46:15;7.07;;;3.13;;
26620;SDS011;14253;44.840;10.444;2023-08-01T07:48:41;14.57;;;3.22;;
26620;SDS011;14253;44.840;10.444;2023-08-01T07:51:07;7.30;;;3.08;;
26620;SDS011;14253;44.840;10.444;2023-08-01T07:53:36;6.60;;;3.08;;
26620;SDS011;14253;44.840;10.444;2023-08-01T07:56:02;7.78;;;3.08;;
26620;SDS011;14253;44.840;10.444;2023-08-01T07:58:31;7.00;;;2.67;;
26620;SDS011;14253;44.840;10.444;2023-08-01T08:01:02;6.25;;;2.88;;
26620;SDS011;14253;44.840;10.444;2023-08-01T08:03:31;8.95;;;3.00;;
26620;SDS011;14253;44.840;10.444;2023-08-01T08:05:57;7.78;;;2.75;;
26620;SDS011;14253;44.840;10.444;2023-08-01T08:08:24;6.80;;;3.28;;
26620;SDS011;14253;44.840;10.444;2023-08-01T08:10:50;5.40;;;2.83;;
26620;SDS011;14253;44.840;10.444;2023-08-01T08:13:16;9.57;;;4.25;;
26620;SDS011;14253;44.840;10.444;2023-08-01T08:15:42;7.85;;;3.20;;
26620;SDS011;14253;44.840;10.444;2023-08-01T08:18:08;6.47;;;3.05;;
26620;SDS011;14253;44.840;10.444;2023-08-01T08:20:40;8.20;;;3.42;;
26620;SDS011;14253;44.840;10.444;2023-08-01T08:23:08;10.48;;;2.75;;
26620;SDS011;14253;44.840;10.444;2023-08-01T08:25:34;9.93;;;3.60;;
26620;SDS011;14253;44.840;10.444;2023-08-01T08:28:00;7.07;;;3.10;;
26620;SDS011;14253;44.840;10.444;2023-08-01T08:30:26;8.52;;;2.97;;
26620;SDS011;14253;44.840;10.444;2023-08-01T08:32:52;5.47;;;2.97;;
26620;SDS011;14253;44.840;10.444;2023-08-01T08:35:18;9.00;;;3.35;;
26620;SDS011;14253;44.840;10.444;2023-08-01T08:37:44;7.15;;;3.45;;
26620;SDS011;14253;44.840;10.444;2023-08-01T08:40:13;10.70;;;4.00;;
26620;SDS011;14253;44.840;10.444;2023-08-01T08:42:45;9.35;;;3.03;;
26620;SDS011;14253;44.840;10.444;2023-08-01T08:45:16;7.40;;;3.20;;
26620;SDS011;14253;44.840;10.444;2023-08-01T08:47:44;5.68;;;3.58;;
26620;SDS011;14253;44.840;10.444;2023-08-01T08:50:23;9.02;;;3.20;;
26620;SDS011;14253;44.840;10.444;2023-08-01T08:52:54;9.80;;;2.85;;
26620;SDS011;14253;44.840;10.444;2023-08-01T08:55:21;5.45;;;2.70;;
26620;SDS011;14253;44.840;10.444;2023-08-01T08:57:50;12.35;;;3.30;;
26620;SDS011;14253;44.840;10.444;2023-08-01T09:00:18;7.57;;;3.10;;
26620;SDS011;14253;44.840;10.444;2023-08-01T09:02:45;8.30;;;3.90;;
26620;SDS011;14253;44.840;10.444;2023-08-01T09:05:11;6.28;;;3.35;;
26620;SDS011;14253;44.840;10.444;2023-08-01T09:07:39;6.70;;;2.95;;
26620;SDS011;14253;44.840;10.444;2023-08-01T09:10:08;7.43;;;3.10;;
26620;SDS011;14253;44.840;10.444;2023-08-01T09:12:34;8.50;;;3.30;;
26620;SDS011;14253;44.840;10.444;2023-08-01T09:15:01;6.97;;;3.50;;
26620;SDS011;14253;44.840;10.444;2023-08-01T09:17:28;5.63;;;3.15;;
26620;SDS011;14253;44.840;10.444;2023-08-01T09:20:05;9.48;;;3.40;;
26620;SDS011;14253;44.840;10.444;2023-08-01T09:22:45;5.15;;;3.47;;
26620;SDS011;14253;44.840;10.444;2023-08-01T09:25:12;6.63;;;3.28;;
26620;SDS011;14253;44.840;10.444;2023-08-01T09:27:39;5.97;;;3.08;;
26620;SDS011;14253;44.840;10.444;2023-08-01T09:30:13;6.28;;;3.17;;
26620;SDS011;14253;44.840;10.444;2023-08-01T09:32:54;10.70;;;3.10;;
26620;SDS011;14253;44.840;10.444;2023-08-01T09:35:21;5.95;;;3.50;;
26620;SDS011;14253;44.840;10.444;2023-08-01T09:37:51;5.53;;;3.20;;
26620;SDS011;14253;44.840;10.444;2023-08-01T09:40:18;6.70;;;3.20;;
26620;SDS011;14253;44.840;10.444;2023-08-01T09:42:45;6.32;;;3.17;;
26620;SDS011;14253;44.840;10.444;2023-08-01T09:45:14;8.45;;;4.03;;
26620;SDS011;14253;44.840;10.444;2023-08-01T09:47:41;8.02;;;3.35;;
26620;SDS011;14253;44.840;10.444;2023-08-01T09:50:11;8.52;;;3.60;;
26620;SDS011;14253;44.840;10.444;2023-08-01T09:52:51;7.13;;;3.55;;
26620;SDS011;14253;44.840;10.444;2023-08-01T09:58:14;7.82;;;3.47;;
26620;SDS011;14253;44.840;10.444;2023-08-01T10:00:46;7.38;;;3.58;;
26620;SDS011;14253;44.840;10.444;2023-08-01T10:03:12;5.50;;;3.95;;
26620;SDS011;14253;44.840;10.444;2023-08-01T10:05:39;7.47;;;4.03;;
26620;SDS011;14253;44.840;10.444;2023-08-01T10:08:06;8.65;;;3.58;;
26620;SDS011;14253;44.840;10.444;2023-08-01T10:10:34;10.10;;;3.45;;
26620;SDS011;14253;44.840;10.444;2023-08-01T10:13:00;11.95;;;4.25;;
26620;SDS011;14253;44.840;10.444;2023-08-01T10:15:28;6.97;;;3.60;;
26620;SDS011;14253;44.840;10.444;2023-08-01T10:17:55;6.57;;;3.65;;
26620;SDS011;14253;44.840;10.444;2023-08-01T10:20:22;7.30;;;3.40;;
26620;SDS011;14253;44.840;10.444;2023-08-01T10:22:49;9.40;;;3.88;;
26620;SDS011;14253;44.840;10.444;2023-08-01T10:25:16;8.40;;;3.90;;
26620;SDS011;14253;44.840;10.444;2023-08-01T10:27:44;6.85;;;3.53;;
26620;SDS011;14253;44.840;10.444;2023-08-01T10:30:09;10.55;;;3.88;;
26620;SDS011;14253;44.840;10.444;2023-08-01T10:32:37;6.25;;;3.60;;
26620;SDS011;14253;44.840;10.444;2023-08-01T10:35:06;7.88;;;3.90;;
26620;SDS011;14253;44.840;10.444;2023-08-01T10:37:42;9.25;;;4.05;;
26620;SDS011;14253;44.840;10.444;2023-08-01T10:40:09;8.55;;;3.80;;
26620;SDS011;14253;44.840;10.444;2023-08-01T10:42:40;10.60;;;4.30;;
26620;SDS011;14253;44.840;10.444;2023-08-01T10:45:24;6.32;;;4.05;;
26620;SDS011;14253;44.840;10.444;2023-08-01T10:47:52;11.35;;;4.00;;
26620;SDS011;14253;44.840;10.444;2023-08-01T10:50:18;9.07;;;3.63;;
26620;SDS011;14253;44.840;10.444;2023-08-01T10:52:45;9.52;;;4.05;;
26620;SDS011;14253;44.840;10.444;2023-08-01T10:55:11;9.15;;;4.57;;
26620;SDS011;14253;44.840;10.444;2023-08-01T10:57:39;7.70;;;4.13;;
26620;SDS011;14253;44.840;10.444;2023-08-01T11:00:15;6.88;;;3.72;;
26620;SDS011;14253;44.840;10.444;2023-08-01T11:02:48;10.68;;;3.85;;
26620;SDS011;14253;44.840;10.444;2023-08-01T11:05:15;5.90;;;3.63;;
26620;SDS011;14253;44.840;10.444;2023-08-01T11:07:41;11.07;;;3.95;;
26620;SDS011;14253;44.840;10.444;2023-08-01T11:10:12;6.68;;;4.25;;
26620;SDS011;14253;44.840;10.444;2023-08-01T11:12:39;8.40;;;4.00;;
26620;SDS011;14253;44.840;10.444;2023-08-01T11:15:07;10.63;;;4.25;;
26620;SDS011;14253;44.840;10.444;2023-08-01T11:17:35;12.88;;;4.40;;
26620;SDS011;14253;44.840;10.444;2023-08-01T11:20:03;7.38;;;3.95;;
26620;SDS011;14253;44.840;10.444;2023-08-01T11:22:37;6.88;;;3.60;;
26620;SDS011;14253;44.840;10.444;2023-08-01T11:25:13;7.30;;;3.72;;
26620;SDS011;14253;44.840;10.444;2023-08-01T11:27:39;8.77;;;4.45;;
26620;SDS011;14253;44.840;10.444;2023-08-01T11:30:05;6.93;;;3.65;;
26620;SDS011;14253;44.840;10.444;2023-08-01T11:32:32;9.23;;;4.25;;
26620;SDS011;14253;44.840;10.444;2023-08-01T11:35:01;8.90;;;4.43;;
26620;SDS011;14253;44.840;10.444;2023-08-01T11:37:28;9.93;;;4.50;;
26620;SDS011;14253;44.840;10.444;2023-08-01T11:39:55;8.60;;;4.05;;
26620;SDS011;14253;44.840;10.444;2023-08-01T11:42:23;6.88;;;4.30;;
26620;SDS011;14253;44.840;10.444;2023-08-01T11:44:49;11.27;;;4.65;;
26620;SDS011;14253;44.840;10.444;2023-08-01T11:47:15;9.68;;;4.55;;
26620;SDS011;14253;44.840;10.444;2023-08-01T11:49:45;11.82;;;4.30;;
26620;SDS011;14253;44.840;10.444;2023-08-01T11:52:22;11.43;;;4.00;;
26620;SDS011;14253;44.840;10.444;2023-08-01T11:54:49;9.00;;;4.40;;
26620;SDS011;14253;44.840;10.444;2023-08-01T11:57:15;8.75;;;3.83;;
26620;SDS011;14253;44.840;10.444;2023-08-01T11:59:51;9.05;;;4.63;;
26620;SDS011;14253;44.840;10.444;2023-08-01T12:02:23;9.02;;;4.35;;
26620;SDS011;14253;44.840;10.444;2023-08-01T12:04:49;11.48;;;3.72;;
26620;SDS011;14253;44.840;10.444;2023-08-01T12:07:16;12.23;;;4.57;;
26620;SDS011;14253;44.840;10.444;2023-08-01T12:09:43;12.10;;;4.13;;
26620;SDS011;14253;44.840;10.444;2023-08-01T12:12:10;9.35;;;4.63;;
26620;SDS011;14253;44.840;10.444;2023-08-01T12:14:39;8.27;;;3.67;;
26620;SDS011;14253;44.840;10.444;2023-08-01T12:17:06;10.05;;;4.30;;
26620;SDS011;14253;44.840;10.444;2023-08-01T12:19:32;9.13;;;4.03;;
26620;SDS011;14253;44.840;10.444;2023-08-01T12:21:59;8.85;;;4.00;;
26620;SDS011;14253;44.840;10.444;2023-08-01T12:24:25;8.73;;;4.25;;
26620;SDS011;14253;44.840;10.444;2023-08-01T12:26:51;10.77;;;3.88;;
26620;SDS011;14253;44.840;10.444;2023-08-01T12:29:17;9.27;;;3.80;;
26620;SDS011;14253;44.840;10.444;2023-08-01T12:31:43;13.23;;;4.70;;
26620;SDS011;14253;44.840;10.444;2023-08-01T12:34:11;9.50;;;4.43;;
26620;SDS011;14253;44.840;10.444;2023-08-01T12:36:37;12.50;;;4.05;;
26620;SDS011;14253;44.840;10.444;2023-08-01T12:39:02;11.73;;;4.57;;
26620;SDS011;14253;44.840;10.444;2023-08-01T12:41:29;11.13;;;4.18;;
26620;SDS011;14253;44.840;10.444;2023-08-01T12:43:55;7.43;;;4.45;;
26620;SDS011;14253;44.840;10.444;2023-08-01T12:46:21;7.95;;;3.95;;
26620;SDS011;14253;44.840;10.444;2023-08-01T12:48:46;7.53;;;4.10;;
26620;SDS011;14253;44.840;10.444;2023-08-01T12:51:12;9.30;;;3.72;;
26620;SDS011;14253;44.840;10.444;2023-08-01T12:53:39;10.73;;;4.55;;
26620;SDS011;14253;44.840;10.444;2023-08-01T12:56:08;10.13;;;4.88;;
26620;SDS011;14253;44.840;10.444;2023-08-01T12:58:34;10.50;;;4.53;;
26620;SDS011;14253;44.840;10.444;2023-08-01T13:01:02;10.73;;;4.47;;
26620;SDS011;14253;44.840;10.444;2023-08-01T13:03:29;26.88;;;4.80;;
26620;SDS011;14253;44.840;10.444;2023-08-01T13:05:55;10.75;;;4.22;;
26620;SDS011;14253;44.840;10.444;2023-08-01T13:08:22;10.75;;;4.13;;
26620;SDS011;14253;44.840;10.444;2023-08-01T13:10:48;12.30;;;5.03;;
26620;SDS011;14253;44.840;10.444;2023-08-01T13:13:15;9.93;;;3.85;;
26620;SDS011;14253;44.840;10.444;2023-08-01T13:15:41;8.93;;;4.40;;
26620;SDS011;14253;44.840;10.444;2023-08-01T13:22:02;12.77;;;4.68;;
26620;SDS011;14253;44.840;10.444;2023-08-01T13:24:29;11.82;;;4.07;;
26620;SDS011;14253;44.840;10.444;2023-08-01T13:26:55;11.88;;;4.50;;
26620;SDS011;14253;44.840;10.444;2023-08-01T13:29:21;14.25;;;4.43;;
26620;SDS011;14253;44.840;10.444;2023-08-01T13:31:47;19.35;;;4.80;;
26620;SDS011;14253;44.840;10.444;2023-08-01T13:34:13;17.75;;;5.25;;
26620;SDS011;14253;44.840;10.444;2023-08-01T13:36:39;13.15;;;4.18;;
26620;SDS011;14253;44.840;10.444;2023-08-01T13:39:04;11.88;;;4.65;;
26620;SDS011;14253;44.840;10.444;2023-08-01T13:41:31;12.02;;;4.63;;
26620;SDS011;14253;44.840;10.444;2023-08-01T13:43:58;7.63;;;4.10;;
26620;SDS011;14253;44.840;10.444;2023-08-01T13:46:24;13.20;;;4.63;;
26620;SDS011;14253;44.840;10.444;2023-08-01T13:48:50;8.02;;;4.25;;
26620;SDS011;14253;44.840;10.444;2023-08-01T13:51:16;8.50;;;4.32;;
26620;SDS011;14253;44.840;10.444;2023-08-01T13:53:42;14.52;;;4.63;;
26620;SDS011;14253;44.840;10.444;2023-08-01T13:56:09;12.27;;;4.28;;
26620;SDS011;14253;44.840;10.444;2023-08-01T13:58:37;10.50;;;4.50;;
26620;SDS011;14253;44.840;10.444;2023-08-01T14:01:07;11.25;;;4.70;;
26620;SDS011;14253;44.840;10.444;2023-08-01T14:03:37;7.03;;;3.70;;
26620;SDS011;14253;44.840;10.444;2023-08-01T14:08:34;10.70;;;4.73;;
26620;SDS011;14253;44.840;10.444;2023-08-01T14:11:03;9.13;;;4.20;;
26620;SDS011;14253;44.840;10.444;2023-08-01T14:13:30;9.20;;;4.57;;
26620;SDS011;14253;44.840;10.444;2023-08-01T14:15:56;8.57;;;4.22;;
26620;SDS011;14253;44.840;10.444;2023-08-01T14:18:22;8.60;;;4.55;;
26620;SDS011;14253;44.840;10.444;2023-08-01T14:20:48;9.23;;;5.03;;
26620;SDS011;14253;44.840;10.444;2023-08-01T14:23:15;9.70;;;4.50;;
26620;SDS011;14253;44.840;10.444;2023-08-01T14:25:41;5.63;;;3.97;;
26620;SDS011;14253;44.840;10.444;2023-08-01T14:28:07;9.00;;;4.70;;
26620;SDS011;14253;44.840;10.444;2023-08-01T14:30:34;11.07;;;4.82;;
26620;SDS011;14253;44.840;10.444;2023-08-01T14:33:03;11.68;;;4.43;;
26620;SDS011;14253;44.840;10.444;2023-08-01T14:35:31;9.00;;;4.30;;
26620;SDS011;14253;44.840;10.444;2023-08-01T14:37:57;11.43;;;4.53;;
26620;SDS011;14253;44.840;10.444;2023-08-01T14:40:23;16.13;;;4.72;;